Aeroporto :







RITROVATECI SU...

 
LOGIN :

Iscrizione | Disclaimer

   EN    FR    IT 

 









Sommario :    VFR   VFR Marginale   IFR   IFR Intensivo   IFR Molto Intensivo
Visibilità : 
Base nubi : 
>= 8 km
>= 3000ft
5 / 8 km
1000 / 3000 ft
1500m / 5 km
500 / 1000 ft
800 / 1500m
200 / 500 ft
< 800m
< 200 ft
Simboli :   Temporali  Nebbia  Neve Forte  Precipitazioni Forti  Vento > 20 kt






- Altitudine del aeroporto : 1442 ft
- Codice IATA : ZUM


CZUM - Churchill Falls

ULTIMO METAR :
  • 110013Z AUTO 27015G29KT 7SM -SN BKN019 OVC028 M04/M07 A2911 RMK PRESRR SLP889

METARs OBSOLETI :
  • 110003Z AUTO 28018G32KT 4SM -SN BKN021 OVC030 M03/M06 A2909 RMK PRESRR SLP882
  • 102338Z AUTO 28011G21KT 6SM -SN SCT014 BKN020 OVC024 M02/M03 A2906 RMK SLP869
  • 102319Z AUTO 25008KT 180V270 2 1/4SM -SN SCT012 BKN022 BKN029 BKN085 M02/M03 A2904 RMK PRESRR SLP864
  • 102317Z AUTO VRB05KT 4SM -SN FEW012 SCT018 BKN025 BKN085 M02/M02 A2903 RMK PRESRR SLP861
  • 102253Z AUTO 19005KT 170V230 9SM SCT012 SCT019 BKN030 BKN085 M02/M02 A2901 RMK SLP854
  • 102239Z AUTO 17006KT 6SM -SN BKN014 BKN019 OVC032 M03/M04 A2902 RMK SLP856
  • 102237Z AUTO 17005KT 3SM -SN BKN014 BKN019 OVC032 M03/M04 A2902 RMK SLP856
  • 102218Z AUTO 15003KT 6SM -SN SCT013 BKN023 OVC034 M04/M05 A2902 RMK SLP859
  • 102214Z AUTO 13004KT 4SM -SN FEW013 BKN023 BKN034 OVC047 M04/M05 A2902 RMK SLP858
  • 102205Z AUTO 15004KT 7SM -SN SCT018 BKN026 BKN033 OVC047 M04/M05 A2902 RMK SLP859
  • 102143Z AUTO 16005KT 110V230 6SM -SN FEW015 BKN023 BKN029 OVC043 M05/M06 A2903 RMK SLP862

TAF AMD TAF CZUM
Valido dal 10 a 23 ore il 11 a 08 ore UTC


102332Z 1023/1108 27012G25KT P6SM SCT020 BKN030 BKN060
TEMPO 1023/1105 1SM -SN BLSN BKN015 OVC040
FM110500 28012G22KT P6SM SCT030
TEMPO 1105/1108 5SM BLSN BKN020 RMK FCST BASED ON AUTO OBS. NXT FCST BY 110200Z



MetMap, La meteo Aeronautica in un colpo d'occhio ! - Copyright ORBIFLY Dicembre 2007 - Disclaimer

ORBIFLY MET'MAP TEAM :

Programmazione e sviluppo : Alexandra Zaïnal
Concezione : Baudouin d'Aumeries
Aiuto per la programmazione : Marc-Olivier Méhu
Supporto tecnico e logistico : Manuel Goepfert
Aiuto per la traduzione : Arnaldo La Scala

Contatto : metmap@orbifly.com




FONTI E CREDITI :

   NOAA